createdAt,value
2023-03-17T00:01:51.409Z,54.75
2023-03-17T00:04:19.555Z,53.89
2023-03-17T00:06:47.603Z,54.88
2023-03-17T00:09:15.409Z,53.55
2023-03-17T00:11:43.501Z,53.94
2023-03-17T00:14:10.706Z,53.91
2023-03-17T00:16:38.964Z,53.74
2023-03-17T00:19:06.633Z,55.83
2023-03-17T00:21:34.264Z,57.60
2023-03-17T00:24:01.564Z,57.48
2023-03-17T00:26:29.123Z,57.48
2023-03-17T00:28:56.307Z,54.98
2023-03-17T00:31:28.804Z,53.34
2023-03-17T00:33:56.324Z,55.92
2023-03-17T00:36:24.677Z,54.74
2023-03-17T00:38:52.736Z,52.45
2023-03-17T00:41:20.366Z,55.56
2023-03-17T00:43:47.649Z,53.51
2023-03-17T00:46:22.476Z,53.41
2023-03-17T00:48:49.945Z,55.06
2023-03-17T00:51:17.430Z,54.23
2023-03-17T00:53:44.621Z,53.85
2023-03-17T00:56:16.272Z,54.69
2023-03-17T00:58:43.603Z,54.97
2023-03-17T01:01:11.034Z,54.83
2023-03-17T01:03:38.871Z,56.08
2023-03-17T01:06:06.907Z,60.77
2023-03-17T01:08:34.251Z,60.98
2023-03-17T01:11:02.012Z,57.79
2023-03-17T01:13:29.326Z,56.99
2023-03-17T01:15:57.206Z,57.34
2023-03-17T01:18:24.827Z,56.65
2023-03-17T01:20:53.089Z,57.76
2023-03-17T01:23:20.451Z,56.03
2023-03-17T01:25:49.110Z,55.12
2023-03-17T01:28:16.854Z,54.61
2023-03-17T01:30:45.121Z,53.00
2023-03-17T01:33:13.037Z,55.69
2023-03-17T01:35:41.418Z,58.80
2023-03-17T01:38:09.912Z,60.63
2023-03-17T01:40:39.053Z,59.66
2023-03-17T01:43:06.208Z,60.92
2023-03-17T01:45:52.052Z,61.02
2023-03-17T01:48:19.544Z,61.53
2023-03-17T01:50:48.363Z,61.53
2023-03-17T01:53:15.769Z,61.14
2023-03-17T01:55:43.620Z,61.71
2023-03-17T01:58:10.826Z,63.42
2023-03-17T02:00:38.134Z,65.45
2023-03-17T02:03:06.306Z,66.06
2023-03-17T02:05:33.550Z,67.16
2023-03-17T02:08:00.789Z,68.38
2023-03-17T02:10:28.918Z,67.00
2023-03-17T02:12:57.441Z,66.13
2023-03-17T02:15:24.843Z,64.90
2023-03-17T02:17:52.834Z,63.70
2023-03-17T02:20:20.051Z,61.20
2023-03-17T02:22:49.206Z,60.36
2023-03-17T02:25:17.376Z,59.39
2023-03-17T02:27:46.313Z,60.57
2023-03-17T02:30:14.956Z,60.60
2023-03-17T02:32:42.439Z,63.45
2023-03-17T02:35:10.245Z,63.71
2023-03-17T02:37:37.636Z,64.79
2023-03-17T02:40:05.859Z,64.39
2023-03-17T02:42:33.653Z,63.82
2023-03-17T02:45:01.181Z,64.78
2023-03-17T02:47:28.644Z,66.10
2023-03-17T02:49:55.870Z,65.77
2023-03-17T02:52:23.024Z,66.37
2023-03-17T02:54:50.739Z,64.04
2023-03-17T02:57:17.958Z,61.93
2023-03-17T02:59:45.205Z,61.88
2023-03-17T03:02:12.678Z,62.91
2023-03-17T03:04:40.051Z,62.59
2023-03-17T03:07:07.300Z,61.24
2023-03-17T03:09:35.289Z,59.36
2023-03-17T03:12:02.686Z,57.95
2023-03-17T03:14:29.860Z,58.75
2023-03-17T03:16:57.412Z,60.70
2023-03-17T03:19:24.562Z,61.43
2023-03-17T03:21:51.758Z,61.05
2023-03-17T03:24:19.188Z,62.23
2023-03-17T03:26:46.450Z,61.90
2023-03-17T03:29:13.669Z,60.84
2023-03-17T03:31:41.138Z,60.22
2023-03-17T03:34:08.833Z,58.90
2023-03-17T03:36:37.001Z,59.68
2023-03-17T03:39:04.473Z,60.61
2023-03-17T03:41:31.773Z,60.68
2023-03-17T03:43:58.920Z,61.37
2023-03-17T03:46:26.879Z,58.59
2023-03-17T03:48:54.706Z,56.29
2023-03-17T03:51:21.854Z,59.55
2023-03-17T03:53:49.374Z,62.88
2023-03-17T03:56:16.595Z,63.20
2023-03-17T03:58:43.877Z,64.06
2023-03-17T04:01:11.409Z,62.21
2023-03-17T04:03:38.985Z,63.13
2023-03-17T04:06:06.256Z,63.42
2023-03-17T04:08:33.491Z,63.98
2023-03-17T04:11:01.086Z,64.23
2023-03-17T04:13:29.283Z,62.22
2023-03-17T04:15:56.534Z,60.50
2023-03-17T04:18:24.083Z,61.54
2023-03-17T04:20:51.389Z,62.23
2023-03-17T04:23:19.123Z,63.27
2023-03-17T04:25:47.006Z,62.11
2023-03-17T04:28:14.334Z,59.22
2023-03-17T04:30:41.564Z,61.31
2023-03-17T04:33:09.045Z,62.75
2023-03-17T04:35:36.399Z,61.90
2023-03-17T04:38:03.869Z,62.53
2023-03-17T04:40:31.810Z,62.45
2023-03-17T04:42:59.229Z,63.86
2023-03-17T04:45:26.413Z,66.08
2023-03-17T04:47:53.870Z,67.88
2023-03-17T04:50:21.041Z,66.78
2023-03-17T04:52:48.305Z,64.80
2023-03-17T04:55:16.262Z,63.50
2023-03-17T04:57:43.929Z,63.65
2023-03-17T05:00:12.622Z,61.84
2023-03-17T05:02:40.261Z,61.41
2023-03-17T05:05:07.510Z,64.27
2023-03-17T05:07:34.720Z,64.52
2023-03-17T05:10:02.245Z,64.85
2023-03-17T05:12:29.484Z,64.59
2023-03-17T05:14:56.645Z,65.80
2023-03-17T05:17:24.205Z,64.64
2023-03-17T05:19:51.386Z,62.95
2023-03-17T05:22:18.595Z,65.02
2023-03-17T05:24:46.098Z,65.10
2023-03-17T05:27:13.266Z,63.15
2023-03-17T05:29:40.478Z,63.70
2023-03-17T05:32:07.908Z,63.67
2023-03-17T05:34:35.090Z,63.88
2023-03-17T05:37:02.237Z,63.34
2023-03-17T05:39:29.820Z,61.34
2023-03-17T05:41:57.320Z,59.69
2023-03-17T05:44:24.836Z,60.78
2023-03-17T05:46:52.288Z,61.13
2023-03-17T05:49:20.359Z,61.63
2023-03-17T05:51:47.592Z,63.22
2023-03-17T05:54:15.060Z,64.79
2023-03-17T05:56:42.831Z,63.72
2023-03-17T05:59:10.642Z,59.42
2023-03-17T06:01:38.065Z,58.81
2023-03-17T06:04:05.528Z,57.94
2023-03-17T06:06:32.761Z,56.11
2023-03-17T06:08:59.897Z,56.64
2023-03-17T06:11:27.493Z,57.06
2023-03-17T06:13:54.988Z,59.76
2023-03-17T06:16:22.314Z,59.07
2023-03-17T06:18:49.973Z,56.34
2023-03-17T06:21:17.314Z,57.46
2023-03-17T06:23:44.638Z,58.50
2023-03-17T06:26:12.077Z,57.12
2023-03-17T06:28:39.215Z,56.20
2023-03-17T06:31:07.420Z,55.32
2023-03-17T06:33:35.383Z,55.66
2023-03-17T06:36:03.298Z,55.43
2023-03-17T06:38:31.215Z,54.28
2023-03-17T06:40:59.035Z,52.64
2023-03-17T06:43:26.491Z,52.47
2023-03-17T06:45:53.940Z,52.85
2023-03-17T06:48:23.494Z,53.82
2023-03-17T06:50:50.930Z,53.73
2023-03-17T06:53:18.883Z,53.54
2023-03-17T06:55:47.064Z,54.15
2023-03-17T06:58:15.997Z,54.22
2023-03-17T07:00:47.189Z,53.32
2023-03-17T07:03:15.971Z,53.38
2023-03-17T07:05:43.620Z,53.62
2023-03-17T07:08:11.561Z,53.92
2023-03-17T07:10:41.951Z,52.28
2023-03-17T07:13:10.241Z,52.38
2023-03-17T07:15:38.359Z,52.31
2023-03-17T07:18:07.031Z,51.65
2023-03-17T07:20:34.516Z,51.69
2023-03-17T07:23:02.029Z,50.07
2023-03-17T07:25:29.914Z,49.25
2023-03-17T07:27:58.520Z,48.35
2023-03-17T07:30:26.552Z,47.66
2023-03-17T07:32:55.311Z,48.02
2023-03-17T07:35:23.396Z,46.92
2023-03-17T07:37:50.931Z,47.21
2023-03-17T07:40:18.912Z,47.01
2023-03-17T07:42:46.361Z,46.63
2023-03-17T07:45:14.034Z,47.03
2023-03-17T07:47:41.890Z,44.74
2023-03-17T07:50:10.812Z,44.00
2023-03-17T07:52:38.333Z,44.57
2023-03-17T07:55:10.523Z,44.41
2023-03-17T07:57:38.747Z,42.97
2023-03-17T08:00:10.970Z,43.18
2023-03-17T08:02:39.178Z,44.15
2023-03-17T08:05:10.500Z,42.54
2023-03-17T08:07:38.388Z,42.55
2023-03-17T08:10:07.484Z,40.58
2023-03-17T08:12:36.547Z,41.51
2023-03-17T08:15:04.268Z,41.50
2023-03-17T08:17:31.913Z,42.04
2023-03-17T08:19:59.625Z,41.11
2023-03-17T08:22:27.759Z,39.83
2023-03-17T08:24:55.764Z,41.59
2023-03-17T08:27:23.497Z,39.22
2023-03-17T08:29:51.274Z,39.21
2023-03-17T08:32:18.886Z,39.33
2023-03-17T08:34:48.429Z,39.20
2023-03-17T08:37:16.009Z,37.72
2023-03-17T08:39:45.060Z,38.32
2023-03-17T08:42:12.907Z,37.16
2023-03-17T08:44:42.206Z,37.17
2023-03-17T08:47:10.953Z,35.86
2023-03-17T08:49:38.796Z,37.06
2023-03-17T08:52:06.134Z,36.59
2023-03-17T08:54:34.951Z,36.52
2023-03-17T08:57:02.765Z,34.71
2023-03-17T08:59:30.310Z,35.34
2023-03-17T09:01:58.009Z,34.87
2023-03-17T09:04:26.658Z,33.19
2023-03-17T09:07:03.271Z,33.67
2023-03-17T09:09:35.324Z,33.45
2023-03-17T09:12:06.345Z,32.75
2023-03-17T09:14:42.870Z,31.46
2023-03-17T09:17:11.266Z,30.54
2023-03-17T09:19:38.947Z,31.74
2023-03-17T09:22:06.881Z,30.98
2023-03-17T09:24:34.461Z,30.17
2023-03-17T09:27:02.189Z,31.73
2023-03-17T09:29:29.600Z,31.20
2023-03-17T09:31:57.252Z,29.97
2023-03-17T09:34:25.226Z,30.30
2023-03-17T09:36:55.964Z,31.06
2023-03-17T09:39:24.210Z,29.26
2023-03-17T09:42:14.587Z,28.83
2023-03-17T09:44:57.041Z,29.04
2023-03-17T09:47:42.294Z,28.82
2023-03-17T09:50:17.589Z,27.88
2023-03-17T09:52:46.134Z,26.67
2023-03-17T09:55:32.747Z,27.24
2023-03-17T09:58:01.101Z,25.83
2023-03-17T10:00:31.151Z,24.65
2023-03-17T10:02:59.831Z,25.15
2023-03-17T10:05:32.435Z,25.48
2023-03-17T10:08:04.363Z,25.41
2023-03-17T10:10:49.976Z,27.07
2023-03-17T10:13:44.618Z,26.08
2023-03-17T10:16:14.631Z,25.40
2023-03-17T10:18:48.203Z,24.67
2023-03-17T10:21:24.314Z,23.82
2023-03-17T10:23:55.442Z,24.30
2023-03-17T10:26:27.194Z,23.69
2023-03-17T10:28:55.874Z,23.33
2023-03-17T10:31:35.437Z,25.69
2023-03-17T10:34:39.665Z,25.05
2023-03-17T10:37:16.329Z,25.18
2023-03-17T10:39:49.126Z,24.42
2023-03-17T10:42:24.512Z,24.46
2023-03-17T10:44:56.451Z,23.21
2023-03-17T10:47:25.277Z,23.02
2023-03-17T10:49:53.395Z,24.26
2023-03-17T10:52:28.095Z,23.37
2023-03-17T10:54:56.098Z,24.75
2023-03-17T10:57:23.875Z,24.80
2023-03-17T10:59:53.810Z,26.80
2023-03-17T11:02:24.085Z,25.40
2023-03-17T11:04:55.113Z,25.99
2023-03-17T11:07:36.467Z,23.19
2023-03-17T11:10:14.838Z,22.75
2023-03-17T11:12:43.038Z,23.11
2023-03-17T11:15:14.255Z,24.63
2023-03-17T11:17:45.502Z,24.37
2023-03-17T11:20:18.803Z,23.71
2023-03-17T11:22:58.403Z,24.58
2023-03-17T11:25:27.213Z,23.45
2023-03-17T11:28:16.363Z,22.96
2023-03-17T11:31:13.034Z,22.59
2023-03-17T11:34:02.982Z,23.41
2023-03-17T11:36:45.370Z,23.31
2023-03-17T11:39:17.192Z,22.88
2023-03-17T11:42:01.674Z,22.99
2023-03-17T11:44:29.340Z,24.35
2023-03-17T11:47:06.590Z,24.27
2023-03-17T11:49:38.929Z,24.27
2023-03-17T11:52:29.321Z,24.08
2023-03-17T11:55:16.477Z,25.57
2023-03-17T11:57:51.841Z,23.73
2023-03-17T12:00:27.552Z,22.52
2023-03-17T12:03:00.230Z,23.99
2023-03-17T12:05:30.072Z,22.07
2023-03-17T12:07:59.802Z,22.07
2023-03-17T12:10:36.421Z,20.87
2023-03-17T12:13:09.897Z,22.28
2023-03-17T12:15:45.570Z,22.04
2023-03-17T12:18:18.772Z,22.32
2023-03-17T12:20:58.584Z,20.84
2023-03-17T12:23:33.862Z,21.18
2023-03-17T12:26:09.193Z,21.25
2023-03-17T12:28:57.686Z,22.15
2023-03-17T12:31:28.998Z,22.33
2023-03-17T12:34:07.991Z,23.51
2023-03-17T12:36:39.416Z,22.57
2023-03-17T12:39:10.346Z,22.57
2023-03-17T12:42:01.646Z,22.33
2023-03-17T12:44:44.725Z,23.86
2023-03-17T12:47:33.493Z,22.13
2023-03-17T12:50:10.865Z,23.16
2023-03-17T12:53:31.614Z,22.38
2023-03-17T12:56:21.993Z,22.69
2023-03-17T12:58:51.121Z,22.89
2023-03-17T13:01:39.402Z,21.73
2023-03-17T13:04:12.874Z,21.79
2023-03-17T13:07:02.510Z,21.84
2023-03-17T13:09:32.959Z,21.36
2023-03-17T13:12:02.285Z,21.44
2023-03-17T13:14:42.900Z,21.99
2023-03-17T13:17:24.604Z,22.73
2023-03-17T13:19:56.728Z,21.33
2023-03-17T13:22:25.539Z,21.95
2023-03-17T13:24:53.173Z,21.53
2023-03-17T13:27:32.787Z,23.36
2023-03-17T13:30:01.691Z,23.62
2023-03-17T13:32:32.665Z,23.73
2023-03-17T13:35:00.144Z,24.22
2023-03-17T13:37:46.268Z,22.58
2023-03-17T13:40:16.290Z,23.06
2023-03-17T13:42:55.008Z,24.46
2023-03-17T13:45:43.924Z,25.21
2023-03-17T13:48:37.430Z,25.71
2023-03-17T13:51:07.591Z,26.79
2023-03-17T13:53:42.208Z,25.81
2023-03-17T13:56:11.838Z,26.49
2023-03-17T13:58:53.549Z,26.93
2023-03-17T14:01:21.665Z,26.48
2023-03-17T14:03:51.295Z,26.75
2023-03-17T14:06:19.003Z,26.55
2023-03-17T14:08:48.301Z,26.32
2023-03-17T14:11:36.272Z,27.05
2023-03-17T14:14:15.173Z,26.71
2023-03-17T14:17:07.618Z,26.63
2023-03-17T14:19:34.827Z,26.51
2023-03-17T14:22:04.215Z,26.96
2023-03-17T14:24:32.334Z,25.83
2023-03-17T14:27:04.409Z,26.67
2023-03-17T14:29:31.997Z,26.23
2023-03-17T14:32:19.677Z,27.19
2023-03-17T14:34:59.323Z,27.77
2023-03-17T14:37:26.986Z,28.02
2023-03-17T14:39:55.671Z,27.04
2023-03-17T14:42:27.026Z,27.02
2023-03-17T14:45:01.761Z,26.96
2023-03-17T14:47:29.151Z,26.67
2023-03-17T14:49:56.906Z,26.03
2023-03-17T14:52:27.007Z,25.07
2023-03-17T14:54:55.058Z,26.01
2023-03-17T14:57:32.681Z,26.79
2023-03-17T15:00:33.990Z,27.52
2023-03-17T15:03:03.463Z,28.09
2023-03-17T15:05:40.681Z,27.77
2023-03-17T15:08:27.050Z,26.89
2023-03-17T15:10:54.228Z,26.25
2023-03-17T15:13:21.727Z,26.31
2023-03-17T15:15:49.183Z,25.93
2023-03-17T15:18:16.830Z,25.32
2023-03-17T15:20:44.970Z,25.54
2023-03-17T15:23:19.440Z,26.49
2023-03-17T15:25:50.437Z,26.60
2023-03-17T15:28:18.552Z,26.93
2023-03-17T15:30:48.187Z,26.32
2023-03-17T15:33:28.672Z,25.78
2023-03-17T15:36:02.147Z,25.33
2023-03-17T15:38:30.119Z,26.12
2023-03-17T15:40:57.392Z,26.27
2023-03-17T15:43:24.757Z,26.61
2023-03-17T15:45:57.508Z,27.89
2023-03-17T15:48:29.821Z,26.80
2023-03-17T15:50:58.783Z,26.21
2023-03-17T15:53:26.297Z,24.97
2023-03-17T15:55:53.528Z,25.72
2023-03-17T15:58:21.017Z,25.69
2023-03-17T16:00:50.257Z,25.94
2023-03-17T16:03:31.280Z,26.66
2023-03-17T16:05:58.820Z,26.32
2023-03-17T16:08:26.422Z,26.61
2023-03-17T16:10:53.692Z,26.20
2023-03-17T16:13:21.026Z,26.91
2023-03-17T16:15:55.898Z,26.70
2023-03-17T16:18:27.702Z,26.48
2023-03-17T16:20:55.276Z,26.04
2023-03-17T16:23:23.642Z,25.64
2023-03-17T16:25:51.698Z,26.35
2023-03-17T16:28:26.158Z,26.53
2023-03-17T16:30:54.506Z,26.62
2023-03-17T16:33:23.609Z,26.95
2023-03-17T16:35:52.429Z,27.41
2023-03-17T16:38:20.723Z,27.33
2023-03-17T16:40:49.155Z,27.87
2023-03-17T16:43:38.337Z,28.02
2023-03-17T16:46:06.622Z,28.00
2023-03-17T16:48:34.318Z,27.23
2023-03-17T16:51:01.751Z,27.41
2023-03-17T16:53:29.311Z,27.52
2023-03-17T16:55:56.519Z,28.60
2023-03-17T16:58:23.715Z,28.23
2023-03-17T17:00:52.397Z,28.39
2023-03-17T17:03:20.296Z,27.98
2023-03-17T17:05:51.409Z,28.42
2023-03-17T17:08:18.941Z,27.92
2023-03-17T17:10:46.272Z,29.76
2023-03-17T17:13:14.272Z,29.34
2023-03-17T17:15:42.658Z,29.33
2023-03-17T17:18:14.845Z,29.33
2023-03-17T17:20:45.064Z,30.69
2023-03-17T17:23:19.995Z,31.49
2023-03-17T17:25:48.208Z,32.26
2023-03-17T17:28:16.764Z,32.36
2023-03-17T17:30:48.596Z,32.13
2023-03-17T17:33:18.316Z,31.97
2023-03-17T17:35:45.899Z,31.89
2023-03-17T17:38:18.717Z,31.93
2023-03-17T17:40:48.148Z,33.08
2023-03-17T17:43:18.297Z,33.96
2023-03-17T17:45:48.615Z,34.17
2023-03-17T17:48:17.351Z,34.62
2023-03-17T17:50:45.465Z,36.02
2023-03-17T17:53:15.897Z,37.86
2023-03-17T17:55:45.758Z,38.24
2023-03-17T17:58:20.862Z,38.93
2023-03-17T18:00:51.019Z,39.39
2023-03-17T18:03:25.125Z,39.42
2023-03-17T18:05:54.725Z,40.25
2023-03-17T18:08:24.524Z,40.30
2023-03-17T18:10:52.925Z,40.47
2023-03-17T18:13:21.773Z,40.68
2023-03-17T18:15:50.752Z,41.42
2023-03-17T18:18:19.126Z,40.60
2023-03-17T18:20:48.108Z,40.42
2023-03-17T18:23:19.058Z,41.04
2023-03-17T18:25:47.713Z,42.11
2023-03-17T18:28:16.816Z,41.02
2023-03-17T18:30:47.119Z,40.49
2023-03-17T18:33:18.122Z,39.39
2023-03-17T18:35:49.775Z,38.53
2023-03-17T18:38:18.797Z,39.50
2023-03-17T18:40:48.064Z,41.56
2023-03-17T18:43:16.891Z,39.91
2023-03-17T18:45:45.879Z,39.75
2023-03-17T18:48:16.818Z,39.03
2023-03-17T18:50:47.027Z,38.28
2023-03-17T18:53:17.364Z,38.44
2023-03-17T18:55:46.289Z,37.99
2023-03-17T18:58:14.838Z,37.87
2023-03-17T19:00:44.919Z,37.59
2023-03-17T19:03:13.234Z,37.23
2023-03-17T19:05:41.944Z,37.46
2023-03-17T19:08:13.053Z,37.83
2023-03-17T19:10:44.528Z,38.05
2023-03-17T19:13:14.841Z,38.33
2023-03-17T19:15:43.435Z,38.13
2023-03-17T19:18:12.161Z,38.61
2023-03-17T19:20:41.030Z,38.82
2023-03-17T19:23:10.062Z,38.75
2023-03-17T19:25:39.528Z,38.96
2023-03-17T19:28:11.579Z,39.13
2023-03-17T19:30:41.169Z,39.29
2023-03-17T19:33:11.858Z,39.08
2023-03-17T19:35:41.701Z,39.97
2023-03-17T19:38:13.570Z,39.64
2023-03-17T19:40:42.606Z,39.87
2023-03-17T19:43:12.393Z,42.07
2023-03-17T19:45:41.178Z,41.55
2023-03-17T19:48:11.906Z,41.85
2023-03-17T19:50:42.174Z,42.68
2023-03-17T19:53:11.368Z,42.28
2023-03-17T19:55:40.290Z,42.33
2023-03-17T19:58:12.945Z,41.77
2023-03-17T20:00:44.770Z,41.68
2023-03-17T20:03:15.555Z,41.78
2023-03-17T20:05:46.003Z,41.71
2023-03-17T20:08:16.668Z,41.49
2023-03-17T20:10:45.860Z,41.87
2023-03-17T20:13:17.529Z,42.17
2023-03-17T20:15:46.580Z,42.93
2023-03-17T20:18:15.188Z,41.76
2023-03-17T20:20:47.970Z,41.87
2023-03-17T20:23:18.028Z,41.89
2023-03-17T20:25:47.411Z,41.97
2023-03-17T20:28:18.293Z,43.68
2023-03-17T20:30:48.625Z,44.46
2023-03-17T20:33:19.287Z,44.36
2023-03-17T20:35:47.604Z,44.95
2023-03-17T20:38:16.375Z,44.69
2023-03-17T20:40:44.857Z,45.89
2023-03-17T20:43:14.855Z,45.00
2023-03-17T20:45:43.914Z,44.19
2023-03-17T20:48:12.818Z,44.10
2023-03-17T20:50:43.977Z,43.65
2023-03-17T20:53:12.708Z,43.45
2023-03-17T20:55:43.157Z,42.99
2023-03-17T20:58:12.083Z,42.40
2023-03-17T21:00:40.905Z,43.52
2023-03-17T21:03:10.466Z,42.57
2023-03-17T21:05:40.996Z,42.88
2023-03-17T21:08:09.369Z,42.87
2023-03-17T21:10:38.158Z,42.81
2023-03-17T21:13:06.917Z,42.97
2023-03-17T21:15:36.315Z,43.46
2023-03-17T21:18:04.294Z,42.70
2023-03-17T21:20:32.793Z,42.52
2023-03-17T21:23:04.943Z,41.37
2023-03-17T21:25:33.602Z,41.55
2023-03-17T21:28:01.655Z,41.51
2023-03-17T21:30:30.910Z,41.45
2023-03-17T21:33:01.086Z,41.53
2023-03-17T21:35:30.898Z,41.64
2023-03-17T21:37:58.813Z,41.28
2023-03-17T21:40:26.605Z,41.45
2023-03-17T21:42:55.674Z,41.12
2023-03-17T21:45:23.301Z,41.44
2023-03-17T21:47:50.863Z,41.16
2023-03-17T21:50:20.170Z,41.15
2023-03-17T21:52:48.996Z,40.86
2023-03-17T21:55:16.694Z,40.44
2023-03-17T21:57:44.464Z,40.71
2023-03-17T22:00:12.784Z,41.12
2023-03-17T22:02:41.931Z,40.93
2023-03-17T22:05:10.542Z,40.84
2023-03-17T22:07:38.729Z,40.78
2023-03-17T22:10:07.421Z,40.35
2023-03-17T22:12:35.764Z,39.97
2023-03-17T22:15:04.398Z,39.51
2023-03-17T22:17:32.593Z,39.94
2023-03-17T22:20:00.047Z,39.74
2023-03-17T22:22:27.546Z,40.00
2023-03-17T22:24:56.388Z,39.93
2023-03-17T22:27:23.785Z,39.92
2023-03-17T22:29:51.280Z,39.97
2023-03-17T22:32:18.957Z,40.34
2023-03-17T22:34:46.432Z,40.11
2023-03-17T22:37:13.834Z,39.64
2023-03-17T22:39:41.515Z,38.89
2023-03-17T22:42:09.477Z,39.87
2023-03-17T22:44:37.044Z,40.31
2023-03-17T22:47:06.331Z,40.11
2023-03-17T22:49:33.804Z,40.25
2023-03-17T22:52:01.312Z,40.79
2023-03-17T22:54:28.989Z,40.48
2023-03-17T22:56:56.398Z,40.98
2023-03-17T22:59:24.065Z,41.11
2023-03-17T23:01:51.817Z,40.43
2023-03-17T23:04:19.269Z,40.91
2023-03-17T23:06:46.653Z,40.93
2023-03-17T23:09:14.810Z,40.96
2023-03-17T23:11:42.824Z,40.93
2023-03-17T23:14:11.306Z,41.24
2023-03-17T23:16:39.251Z,41.01
2023-03-17T23:19:06.682Z,41.26
2023-03-17T23:21:37.627Z,41.19
2023-03-17T23:24:07.713Z,41.33
2023-03-17T23:26:36.930Z,41.10
2023-03-17T23:29:06.992Z,41.68
2023-03-17T23:31:34.981Z,41.87
2023-03-17T23:34:03.424Z,41.91
2023-03-17T23:36:31.072Z,41.66
2023-03-17T23:38:58.502Z,42.09
2023-03-17T23:41:26.048Z,42.00
2023-03-17T23:43:53.746Z,41.81
2023-03-17T23:46:21.156Z,41.88
2023-03-17T23:48:49.389Z,41.79
2023-03-17T23:51:17.865Z,41.86
2023-03-17T23:53:46.440Z,41.61
2023-03-17T23:56:13.856Z,41.85
2023-03-17T23:58:43.313Z,41.92
